Time;durP1;ratioP1;P1;durP2;ratioP2;P2;SDS_P1;SDS_P2;PMS_P1;PMS_P2;Temp;Humidity;BMP_temperature;BMP_pressure;BME280_temperature;BME280_humidity;BME280_pressure;Samples;Min_cycle;Max_cycle;Signal;HPM_P1;HPM_P2
2022/07/20 00:00:07;;;;;;;;;;;;;;;22.29;78.01;97581.58;599086;237;66733;-74
2022/07/20 00:02:36;;;;;;;;;;;;;;;22.28;78.00;97574.59;599232;237;45329;-74
2022/07/20 00:05:06;;;;;;;;;;;;;;;22.28;77.96;97577.27;599085;237;67305;-74
2022/07/20 00:07:33;;;;;;;;;;;;;;;22.28;78.09;97577.27;599101;237;66877;-74
2022/07/20 00:12:46;;;;;;;;;;;;;;;22.28;78.11;97574.59;599094;237;64499;-74
2022/07/20 00:15:14;;;;;;;;;;;;;;;22.27;77.95;97564.97;599096;237;64619;-74
2022/07/20 00:17:41;;;;;;;;;;;;;;;22.28;78.00;97569.24;599128;237;62726;-74
2022/07/20 00:20:10;;;;;;;;;;;;;;;22.28;78.12;97579.95;599053;237;64845;-73
2022/07/20 00:22:37;;;;;;;;;;;;;;;22.29;78.07;97578.08;599031;237;67350;-74
2022/07/20 00:25:05;;;;;;;;;;;;;;;22.29;78.12;97570.87;599075;237;65046;-74
2022/07/20 00:27:33;;;;;;;;;;;;;;;22.28;78.02;97571.92;599070;237;67291;-74
2022/07/20 00:30:00;;;;;;;;;;;;;;;22.30;78.01;97568.98;599133;237;66832;-74
2022/07/20 00:32:28;;;;;;;;;;;;;;;22.29;78.12;97572.72;599051;237;64929;-73
2022/07/20 00:34:55;;;;;;;;;;;;;;;22.28;77.99;97574.59;599085;237;67043;-66
2022/07/20 00:37:23;;;;;;;;;;;;;;;22.29;77.96;97576.23;599041;237;67081;-66
2022/07/20 00:39:50;;;;;;;;;;;;;;;22.28;78.10;97574.59;599098;237;62759;-74
2022/07/20 00:42:18;;;;;;;;;;;;;;;22.28;78.08;97574.59;599098;237;66814;-74
2022/07/20 00:44:45;;;;;;;;;;;;;;;22.28;78.06;97569.24;599086;237;66875;-74
2022/07/20 00:47:13;;;;;;;;;;;;;;;22.29;77.91;97570.05;599046;237;65025;-74
2022/07/20 00:49:41;;;;;;;;;;;;;;;22.28;77.91;97573.80;599054;237;65016;-74
2022/07/20 00:52:08;;;;;;;;;;;;;;;22.28;77.91;97569.24;599053;237;66841;-74
2022/07/20 00:54:36;;;;;;;;;;;;;;;22.28;77.83;97569.24;599052;237;63005;-66
2022/07/20 00:57:04;;;;;;;;;;;;;;;22.28;78.04;97569.24;599082;236;64885;-66
2022/07/20 00:59:31;;;;;;;;;;;;;;;22.28;77.96;97563.89;599082;237;66513;-66
2022/07/20 01:01:59;;;;;;;;;;;;;;;22.28;78.10;97561.20;599116;237;62698;-66
2022/07/20 01:04:26;;;;;;;;;;;;;;;22.29;77.96;97567.36;599109;237;64902;-66
2022/07/20 01:06:54;;;;;;;;;;;;;;;22.28;77.95;97560.41;599095;237;64860;-66
2022/07/20 01:09:21;;;;;;;;;;;;;;;22.28;77.92;97563.89;599161;237;62818;-66
2022/07/20 01:11:49;;;;;;;;;;;;;;;22.27;78.01;97562.30;599047;237;65003;-66
2022/07/20 01:14:16;;;;;;;;;;;;;;;22.28;78.01;97566.56;599106;237;64579;-66
2022/07/20 01:16:44;;;;;;;;;;;;;;;22.28;78.08;97558.53;599077;237;62760;-66
2022/07/20 01:19:12;;;;;;;;;;;;;;;22.27;78.14;97559.61;599100;237;64569;-65
2022/07/20 01:21:43;;;;;;;;;;;;;;;22.28;78.44;97555.86;599141;237;65048;-74
2022/07/20 01:24:12;;;;;;;;;;;;;;;22.27;78.31;97556.14;599114;237;65139;-74
2022/07/20 01:26:43;;;;;;;;;;;;;;;22.27;78.23;97554.26;599080;237;64597;-75
2022/07/20 01:29:12;;;;;;;;;;;;;;;22.29;78.27;97559.33;599124;237;64323;-73
2022/07/20 01:31:40;;;;;;;;;;;;;;;22.27;78.17;97551.58;599056;237;64871;-73
2022/07/20 01:34:07;;;;;;;;;;;;;;;22.28;78.26;97552.38;599164;237;67191;-73
2022/07/20 01:36:35;;;;;;;;;;;;;;;22.27;78.34;97554.26;599065;237;67297;-74
2022/07/20 01:39:03;;;;;;;;;;;;;;;22.28;78.36;97557.73;599116;237;65050;-73
2022/07/20 01:41:30;;;;;;;;;;;;;;;22.27;78.32;97554.26;599088;237;67112;-73
2022/07/20 01:43:58;;;;;;;;;;;;;;;22.27;78.36;97554.26;599073;237;66919;-73
2022/07/20 01:46:25;;;;;;;;;;;;;;;22.27;78.41;97551.58;599101;237;65345;-73
2022/07/20 01:48:53;;;;;;;;;;;;;;;22.27;78.39;97554.26;599149;237;67167;-73
2022/07/20 01:51:20;;;;;;;;;;;;;;;22.27;78.32;97550.78;599075;237;66957;-73
2022/07/20 01:53:48;;;;;;;;;;;;;;;22.27;78.33;97564.17;599128;237;65122;-74
2022/07/20 01:56:16;;;;;;;;;;;;;;;22.27;78.43;97559.61;599029;236;66755;-73
2022/07/20 01:58:43;;;;;;;;;;;;;;;22.27;78.55;97567.65;599102;237;64787;-73
2022/07/20 02:01:11;;;;;;;;;;;;;;;22.26;78.62;97566.05;599137;237;62827;-73
2022/07/20 02:03:40;;;;;;;;;;;;;;;22.26;78.49;97560.70;599078;237;65239;-73
2022/07/20 02:06:08;;;;;;;;;;;;;;;22.26;78.64;97555.34;599122;237;64485;-74
2022/07/20 02:08:36;;;;;;;;;;;;;;;22.26;78.61;97563.38;599092;237;64857;-66
2022/07/20 02:11:04;;;;;;;;;;;;;;;22.26;78.53;97560.70;599028;237;67099;-66
2022/07/20 02:13:34;;;;;;;;;;;;;;;22.26;78.60;97555.34;599132;237;67064;-66
2022/07/20 02:16:16;;;;;;;;;;;;;;;22.26;78.67;97555.34;599098;237;63696;-66
2022/07/20 02:18:45;;;;;;;;;;;;;;;22.26;78.73;97555.34;599125;237;67075;-66
2022/07/20 02:21:13;;;;;;;;;;;;;;;22.25;78.88;97551.03;599118;237;64725;-65
2022/07/20 02:23:41;;;;;;;;;;;;;;;22.27;78.77;97561.49;599091;237;62933;-65
2022/07/20 02:26:08;;;;;;;;;;;;;;;22.26;78.78;97558.02;599057;237;67427;-65
2022/07/20 02:28:36;;;;;;;;;;;;;;;22.26;78.80;97560.70;599167;237;64744;-66
2022/07/20 02:31:05;;;;;;;;;;;;;;;22.25;78.85;97561.75;599096;237;65277;-65
2022/07/20 02:33:34;;;;;;;;;;;;;;;22.25;79.00;97553.72;599084;237;67625;-65
2022/07/20 02:36:02;;;;;;;;;;;;;;;22.26;79.04;97552.66;599081;237;65789;-65
2022/07/20 02:38:29;;;;;;;;;;;;;;;22.25;79.04;97560.95;599093;237;62909;-65
2022/07/20 02:40:57;;;;;;;;;;;;;;;22.24;79.12;97560.15;599157;237;67243;-66
2022/07/20 02:43:25;;;;;;;;;;;;;;;22.24;79.06;97562.83;599118;237;66740;-73
2022/07/20 02:45:52;;;;;;;;;;;;;;;22.25;79.05;97560.95;599081;237;64880;-73
2022/07/20 02:48:20;;;;;;;;;;;;;;;22.24;79.09;97557.47;599101;237;67202;-73
2022/07/20 02:50:47;;;;;;;;;;;;;;;22.25;79.27;97560.95;599028;237;65025;-73
2022/07/20 02:53:15;;;;;;;;;;;;;;;22.24;79.27;97570.06;599149;237;65044;-73
2022/07/20 02:55:43;;;;;;;;;;;;;;;22.24;79.22;97567.38;599053;236;64859;-73
2022/07/20 02:58:11;;;;;;;;;;;;;;;22.24;79.15;97572.73;599089;237;67024;-73
2022/07/20 03:00:40;;;;;;;;;;;;;;;22.23;79.15;97577.27;599081;237;62697;-73
2022/07/20 03:03:07;;;;;;;;;;;;;;;22.23;79.13;97571.91;599046;237;67152;-65
2022/07/20 03:05:35;;;;;;;;;;;;;;;22.23;79.14;97571.91;599137;237;67057;-66
2022/07/20 03:08:05;;;;;;;;;;;;;;;22.23;79.25;97577.27;599117;237;62837;-65
2022/07/20 03:10:33;;;;;;;;;;;;;;;22.23;79.25;97574.59;599082;237;64593;-65
2022/07/20 03:13:00;;;;;;;;;;;;;;;22.21;79.24;97574.07;599068;237;64764;-65
2022/07/20 03:15:28;;;;;;;;;;;;;;;22.22;79.21;97583.70;599060;237;62776;-65
2022/07/20 03:17:55;;;;;;;;;;;;;;;22.23;79.16;97576.47;599068;237;66048;-65
2022/07/20 03:20:24;;;;;;;;;;;;;;;22.22;79.13;97578.34;599133;237;66757;-65
2022/07/20 03:22:52;;;;;;;;;;;;;;;22.22;79.14;97572.19;599080;237;62997;-65
2022/07/20 03:25:20;;;;;;;;;;;;;;;22.22;79.21;97586.38;599080;237;67114;-65
2022/07/20 03:27:47;;;;;;;;;;;;;;;22.22;79.10;97585.58;599091;237;66891;-65
2022/07/20 03:30:16;;;;;;;;;;;;;;;22.23;79.25;97584.50;599061;237;66045;-65
2022/07/20 03:32:44;;;;;;;;;;;;;;;22.23;79.34;97587.17;599140;237;67323;-65
2022/07/20 03:35:11;;;;;;;;;;;;;;;22.21;79.30;97584.78;599091;237;65708;-65
2022/07/20 03:37:39;;;;;;;;;;;;;;;22.22;79.29;97589.05;599076;237;65093;-65
2022/07/20 03:40:07;;;;;;;;;;;;;;;22.22;79.34;97593.61;599069;237;67199;-65
2022/07/20 03:42:35;;;;;;;;;;;;;;;22.22;79.32;97591.73;599062;237;66909;-65
2022/07/20 03:45:04;;;;;;;;;;;;;;;22.21;79.34;97587.45;599113;237;65228;-65
2022/07/20 03:47:33;;;;;;;;;;;;;;;22.21;79.25;97590.13;599082;237;67109;-66
2022/07/20 03:50:01;;;;;;;;;;;;;;;22.21;79.31;97590.13;599070;237;65050;-66
2022/07/20 03:52:28;;;;;;;;;;;;;;;22.21;79.35;97595.48;599092;237;62784;-66
2022/07/20 03:54:56;;;;;;;;;;;;;;;22.21;79.21;97589.30;599079;235;64927;-66
2022/07/20 03:57:23;;;;;;;;;;;;;;;22.21;79.11;97590.13;604347;235;66336;-66
2022/07/20 03:59:50;;;;;;;;;;;;;;;22.22;79.16;97596.28;604281;235;64879;-66
2022/07/20 04:02:18;;;;;;;;;;;;;;;22.21;79.08;97590.13;604315;235;64320;-66
2022/07/20 04:04:45;;;;;;;;;;;;;;;22.22;79.07;97599.77;604252;235;64848;-66
2022/07/20 04:07:13;;;;;;;;;;;;;;;22.22;79.01;97590.93;604299;235;62936;-66
2022/07/20 04:09:44;;;;;;;;;;;;;;;22.21;79.07;97594.66;604294;235;66870;-66
2022/07/20 04:12:13;;;;;;;;;;;;;;;22.22;79.06;97596.28;604328;235;66633;-66
2022/07/20 04:14:41;;;;;;;;;;;;;;;22.21;79.10;97598.16;604269;235;65150;-66
2022/07/20 04:17:09;;;;;;;;;;;;;;;22.21;79.08;97597.34;604287;235;66760;-66
2022/07/20 04:19:37;;;;;;;;;;;;;;;22.21;79.08;97591.98;604283;235;66878;-66
2022/07/20 04:22:04;;;;;;;;;;;;;;;22.21;79.10;97587.45;604294;235;62970;-66
2022/07/20 04:24:32;;;;;;;;;;;;;;;22.21;79.13;97600.84;604287;235;65281;-66
2022/07/20 04:26:59;;;;;;;;;;;;;;;22.21;79.11;97602.69;604279;235;64851;-66
2022/07/20 04:29:28;;;;;;;;;;;;;;;22.20;79.08;97599.22;604225;235;62743;-66
2022/07/20 04:31:55;;;;;;;;;;;;;;;22.21;79.13;97602.69;604251;235;67286;-66
2022/07/20 04:34:23;;;;;;;;;;;;;;;22.20;79.15;97599.22;604274;235;66853;-66
2022/07/20 04:36:51;;;;;;;;;;;;;;;22.20;79.16;97599.22;604321;235;63527;-66
2022/07/20 04:39:18;;;;;;;;;;;;;;;22.20;79.07;97604.57;604315;235;67093;-74
2022/07/20 04:41:46;;;;;;;;;;;;;;;22.20;79.15;97593.06;604318;235;66876;-73
2022/07/20 04:44:13;;;;;;;;;;;;;;;22.20;79.13;97593.06;604299;235;62747;-74
2022/07/20 04:46:41;;;;;;;;;;;;;;;22.19;79.08;97594.94;604341;235;64976;-74
2022/07/20 04:49:09;;;;;;;;;;;;;;;22.19;79.20;97594.94;604337;235;64517;-74
2022/07/20 04:51:36;;;;;;;;;;;;;;;22.19;79.23;97592.27;604252;234;64910;-74
2022/07/20 04:54:05;;;;;;;;;;;;;;;22.20;79.18;97590.38;604250;235;67233;-73
2022/07/20 04:56:32;;;;;;;;;;;;;;;22.19;79.27;97596.81;600741;235;66856;-73
2022/07/20 04:59:00;;;;;;;;;;;;;;;22.19;79.21;97600.30;599109;237;62656;-74
2022/07/20 05:01:27;;;;;;;;;;;;;;;22.19;79.25;97597.62;599166;237;64620;-74
2022/07/20 05:03:54;;;;;;;;;;;;;;;22.19;79.21;97599.49;599070;237;64894;-74
2022/07/20 05:06:22;;;;;;;;;;;;;;;22.19;79.37;97597.62;599089;237;62760;-74
2022/07/20 05:08:49;;;;;;;;;;;;;;;22.19;79.41;97599.49;599101;237;67383;-74
2022/07/20 05:11:17;;;;;;;;;;;;;;;22.18;79.42;97596.02;599082;237;66605;-74
2022/07/20 05:13:45;;;;;;;;;;;;;;;22.18;79.48;97601.38;599069;237;64961;-74
2022/07/20 05:16:12;;;;;;;;;;;;;;;22.17;79.39;97595.16;599149;237;64849;-73
2022/07/20 05:18:40;;;;;;;;;;;;;;;22.18;79.37;97596.02;599035;237;64094;-73
2022/07/20 05:21:07;;;;;;;;;;;;;;;22.18;79.31;97590.66;599100;237;62703;-73
2022/07/20 05:23:35;;;;;;;;;;;;;;;22.17;79.24;97589.01;599101;237;64929;-73
2022/07/20 05:26:03;;;;;;;;;;;;;;;22.18;79.25;97604.05;599073;237;65064;-73
2022/07/20 05:28:31;;;;;;;;;;;;;;;22.17;79.21;97595.16;599136;237;62849;-73
2022/07/20 05:30:58;;;;;;;;;;;;;;;22.17;79.21;97597.04;599014;237;67177;-73
2022/07/20 05:33:26;;;;;;;;;;;;;;;22.18;79.14;97596.02;599063;237;66831;-73
2022/07/20 05:35:53;;;;;;;;;;;;;;;22.17;79.13;97605.07;599136;237;62695;-73
2022/07/20 05:38:21;;;;;;;;;;;;;;;22.17;79.20;97610.42;599116;237;64442;-73
2022/07/20 05:40:48;;;;;;;;;;;;;;;22.18;79.28;97609.41;599009;237;64501;-73
2022/07/20 05:43:16;;;;;;;;;;;;;;;22.17;79.22;97608.55;598977;237;65207;-73
2022/07/20 05:45:44;;;;;;;;;;;;;;;22.16;79.35;97604.27;599073;237;67258;-73
2022/07/20 05:48:11;;;;;;;;;;;;;;;22.17;79.41;97615.78;598935;237;66875;-73
2022/07/20 05:50:39;;;;;;;;;;;;;;;22.17;79.31;97610.42;598803;237;62828;-73
2022/07/20 05:53:07;;;;;;;;;;;;;;;22.17;79.21;97599.72;598834;237;65109;-73
2022/07/20 05:55:35;;;;;;;;;;;;;;;22.17;79.24;97605.07;599858;235;66840;-73
2022/07/20 05:58:04;;;;;;;;;;;;;;;22.17;79.41;97600.52;604182;235;63016;-70
2022/07/20 06:00:32;;;;;;;;;;;;;;;22.16;79.02;97598.12;604290;235;65886;-69
2022/07/20 06:03:00;;;;;;;;;;;;;;;22.16;79.23;97604.27;604093;235;66992;-73
2022/07/20 06:05:27;;;;;;;;;;;;;;;22.17;79.25;97597.84;604092;235;62731;-71
2022/07/20 06:07:55;;;;;;;;;;;;;;;22.17;79.40;97599.72;604199;235;67876;-73
2022/07/20 06:10:23;;;;;;;;;;;;;;;22.16;79.43;97603.47;604218;235;66984;-73
2022/07/20 06:12:51;;;;;;;;;;;;;;;22.17;79.44;97599.72;604240;235;66053;-73
2022/07/20 06:15:19;;;;;;;;;;;;;;;22.14;78.78;97601.05;604235;235;67040;-68
2022/07/20 06:17:47;;;;;;;;;;;;;;;22.16;78.99;97600.80;604270;235;66917;-71
2022/07/20 06:20:15;;;;;;;;;;;;;;;22.23;76.50;97597.88;604235;235;65236;-73
2022/07/20 06:22:43;;;;;;;;;;;;;;;22.22;76.52;97593.61;604192;235;64698;-73
2022/07/20 06:25:12;;;;;;;;;;;;;;;22.22;77.74;97597.08;604182;235;66661;-73
2022/07/20 06:27:40;;;;;;;;;;;;;;;22.21;79.35;97600.84;604185;235;64880;-73
2022/07/20 06:30:08;;;;;;;;;;;;;;;22.20;79.54;97591.19;604194;235;67040;-73
2022/07/20 06:32:36;;;;;;;;;;;;;;;22.20;79.37;97591.19;604173;235;67272;-69
2022/07/20 06:35:03;;;;;;;;;;;;;;;22.20;79.43;97585.03;604255;235;64915;-73
2022/07/20 06:37:31;;;;;;;;;;;;;;;22.19;79.37;97592.27;604256;235;67443;-72
2022/07/20 06:39:59;;;;;;;;;;;;;;;22.20;79.26;97590.38;604135;235;65071;-75
2022/07/20 06:42:26;;;;;;;;;;;;;;;22.19;79.41;97584.23;597320;235;63013;-74
2022/07/20 06:44:54;;;;;;;;;;;;;;;22.20;79.36;97583.15;591979;235;70682;-76
2022/07/20 06:47:22;;;;;;;;;;;;;;;22.19;79.36;97581.55;604212;235;66933;-76
2022/07/20 06:49:50;;;;;;;;;;;;;;;22.21;79.28;97584.78;604292;235;63843;-76
2022/07/20 06:52:17;;;;;;;;;;;;;;;22.20;79.14;97585.03;604189;235;66748;-77
2022/07/20 06:54:46;;;;;;;;;;;;;;;22.19;79.11;97578.88;604018;235;44538;-75
2022/07/20 06:57:14;;;;;;;;;;;;;;;22.20;79.07;97580.47;604213;235;65188;-75
2022/07/20 06:59:42;;;;;;;;;;;;;;;22.20;79.04;97577.80;604201;235;65024;-75
2022/07/20 07:02:09;;;;;;;;;;;;;;;22.20;79.02;97585.03;604212;235;67061;-76
2022/07/20 07:04:37;;;;;;;;;;;;;;;22.20;79.00;97583.15;604200;235;65066;-75
2022/07/20 07:07:04;;;;;;;;;;;;;;;22.21;78.99;97584.78;604090;235;64851;-74
2022/07/20 07:09:32;;;;;;;;;;;;;;;22.21;78.94;97582.10;604268;235;66959;-75
2022/07/20 07:12:00;;;;;;;;;;;;;;;22.21;78.93;97584.78;604157;235;62998;-66
2022/07/20 07:14:27;;;;;;;;;;;;;;;22.21;78.89;97579.42;604188;235;64740;-66
2022/07/20 07:16:55;;;;;;;;;;;;;;;22.21;78.90;97581.27;604142;235;64732;-66
2022/07/20 07:19:22;;;;;;;;;;;;;;;22.21;78.89;97576.75;604224;235;62811;-66
2022/07/20 07:21:50;;;;;;;;;;;;;;;22.21;78.86;97584.78;604189;234;67314;-67
2022/07/20 07:24:17;;;;;;;;;;;;;;;22.28;72.76;97579.95;604884;234;67001;-66
2022/07/20 07:26:45;;;;;;;;;;;;;;;22.33;74.32;97581.84;604958;234;64855;-66
2022/07/20 07:29:14;;;;;;;;;;;;;;;22.31;78.16;97582.09;604749;234;67118;-66
2022/07/20 07:31:42;;;;;;;;;;;;;;;22.27;79.30;97578.36;604368;234;67204;-66
2022/07/20 07:34:09;;;;;;;;;;;;;;;22.25;79.05;97577.02;604956;234;64867;-66
2022/07/20 07:36:37;;;;;;;;;;;;;;;22.25;79.15;97579.69;604977;234;67158;-66
2022/07/20 07:39:05;;;;;;;;;;;;;;;22.24;79.15;97578.09;604991;234;66615;-66
2022/07/20 07:41:32;;;;;;;;;;;;;;;22.24;79.23;97573.53;604920;234;64877;-67
2022/07/20 07:44:00;;;;;;;;;;;;;;;22.23;79.20;97577.27;604927;234;65716;-66
2022/07/20 07:46:29;;;;;;;;;;;;;;;22.24;79.23;97575.41;604921;234;68120;-67
2022/07/20 07:48:56;;;;;;;;;;;;;;;22.24;79.23;97576.22;604992;234;64885;-67
2022/07/20 07:51:24;;;;;;;;;;;;;;;22.24;79.25;97572.73;604901;234;67168;-67
2022/07/20 07:53:51;;;;;;;;;;;;;;;22.23;79.31;97577.27;604917;234;67066;-67
2022/07/20 07:56:19;;;;;;;;;;;;;;;22.23;79.37;97577.27;603638;234;64832;-67
2022/07/20 07:58:46;;;;;;;;;;;;;;;22.24;79.36;97572.73;602956;235;67186;-67
2022/07/20 08:01:14;;;;;;;;;;;;;;;22.24;79.41;97562.83;602992;235;66765;-67
2022/07/20 08:03:42;;;;;;;;;;;;;;;22.24;79.40;97567.38;602930;235;66011;-66
2022/07/20 08:06:09;;;;;;;;;;;;;;;22.24;79.32;97564.70;602927;235;64310;-66
2022/07/20 08:08:37;;;;;;;;;;;;;;;22.24;79.34;97565.50;603008;235;68054;-66
2022/07/20 08:11:05;;;;;;;;;;;;;;;22.24;79.26;97570.86;602915;235;62655;-66
2022/07/20 08:13:32;;;;;;;;;;;;;;;22.24;79.46;97570.86;602975;235;67309;-69
2022/07/20 08:16:01;;;;;;;;;;;;;;;22.25;79.60;97572.45;602802;235;43078;-68
2022/07/20 08:18:29;;;;;;;;;;;;;;;22.25;79.49;97563.63;602920;235;65001;-70
2022/07/20 08:20:57;;;;;;;;;;;;;;;22.27;76.63;97567.65;603008;235;66770;-66
2022/07/20 08:23:24;;;;;;;;;;;;;;;22.28;78.98;97563.89;602885;235;66665;-66
2022/07/20 08:25:52;;;;;;;;;;;;;;;22.28;79.59;97561.20;602915;235;62761;-67
2022/07/20 08:28:21;;;;;;;;;;;;;;;22.28;79.59;97568.45;603007;235;66845;-66
2022/07/20 08:30:50;;;;;;;;;;;;;;;22.27;79.43;97559.61;602985;235;67075;-66
2022/07/20 08:33:18;;;;;;;;;;;;;;;22.28;79.42;97563.89;602914;235;62749;-66
2022/07/20 08:35:45;;;;;;;;;;;;;;;22.27;79.27;97562.30;602977;235;65112;-65
2022/07/20 08:38:13;;;;;;;;;;;;;;;22.28;79.30;97557.73;602988;235;64887;-66
2022/07/20 08:40:41;;;;;;;;;;;;;;;22.28;79.27;97563.89;602967;235;65074;-66
2022/07/20 08:43:09;;;;;;;;;;;;;;;22.29;79.21;97565.52;602996;235;67065;-66
2022/07/20 08:45:37;;;;;;;;;;;;;;;22.29;79.04;97570.05;602910;235;67020;-66
2022/07/20 08:48:11;;;;;;;;;;;;;;;22.29;79.04;97559.33;602801;235;63018;-65
2022/07/20 08:50:35;;;;;;;;;;;;;;;22.29;79.08;97560.16;595447;235;66925;-65
2022/07/20 08:53:03;;;;;;;;;;;;;;;22.29;79.04;97560.16;602193;235;64406;-65
2022/07/20 08:55:31;;;;;;;;;;;;;;;22.30;79.05;97555.60;602039;235;62737;-73
2022/07/20 08:57:59;;;;;;;;;;;;;;;22.30;79.05;97548.37;603005;235;67110;-72
2022/07/20 09:00:26;;;;;;;;;;;;;;;22.30;79.15;97550.25;602536;235;65025;-72
2022/07/20 09:02:56;;;;;;;;;;;;;;;22.31;79.11;97552.64;602927;235;62982;-71
2022/07/20 09:05:24;;;;;;;;;;;;;;;22.29;79.09;97549.45;602836;235;67057;-72
2022/07/20 09:07:56;;;;;;;;;;;;;;;22.32;79.20;97553.47;602904;235;66933;-72
2022/07/20 09:10:34;;;;;;;;;;;;;;;22.30;79.08;97543.02;602939;235;65227;-72
2022/07/20 09:13:03;;;;;;;;;;;;;;;22.32;80.25;97546.23;602920;235;67031;-71
2022/07/20 09:15:32;;;;;;;;;;;;;;;22.32;80.18;97543.56;602802;235;65030;-72
2022/07/20 09:18:04;;;;;;;;;;;;;;;22.32;79.55;97538.20;602842;235;65233;-72
2022/07/20 09:20:33;;;;;;;;;;;;;;;22.32;79.04;97538.20;602794;235;64366;-74
2022/07/20 09:23:01;;;;;;;;;;;;;;;22.33;78.65;97534.44;602961;235;66863;-74
2022/07/20 09:25:29;;;;;;;;;;;;;;;22.34;78.47;97541.42;602852;235;64796;-73
2022/07/20 09:27:57;;;;;;;;;;;;;;;22.33;78.10;97526.41;602910;235;67240;-73
2022/07/20 09:30:25;;;;;;;;;;;;;;;22.33;77.98;97526.41;602697;235;63360;-74
2022/07/20 09:33:03;;;;;;;;;;;;;;;22.33;77.88;97529.09;602906;235;65352;-74
2022/07/20 09:35:32;;;;;;;;;;;;;;;22.34;77.88;97524.53;602977;235;66968;-74
2022/07/20 09:38:01;;;;;;;;;;;;;;;22.34;77.91;97522.69;602965;235;64825;-74
2022/07/20 09:40:29;;;;;;;;;;;;;;;22.34;78.05;97519.17;602965;235;65012;-73
2022/07/20 09:42:56;;;;;;;;;;;;;;;22.33;78.11;97521.05;603006;235;67020;-73
2022/07/20 09:45:28;;;;;;;;;;;;;;;22.34;78.27;97519.17;602823;235;67050;-73
2022/07/20 09:48:01;;;;;;;;;;;;;;;22.33;78.49;97513.02;603049;235;65172;-73
2022/07/20 09:50:30;;;;;;;;;;;;;;;22.34;78.73;97509.30;602927;235;67087;-72
2022/07/20 09:52:58;;;;;;;;;;;;;;;22.34;78.85;97513.82;602905;235;65477;-72
2022/07/20 09:55:26;;;;;;;;;;;;;;;22.34;79.10;97509.30;602425;234;62745;-72
2022/07/20 09:57:54;;;;;;;;;;;;;;;22.34;78.79;97509.30;601104;236;68183;-72
2022/07/20 10:00:22;;;;;;;;;;;;;;;22.34;78.85;97498.58;601160;236;67147;-73
2022/07/20 10:02:53;;;;;;;;;;;;;;;22.34;79.04;97495.91;601255;236;62990;-73
2022/07/20 10:05:21;;;;;;;;;;;;;;;22.34;79.06;97498.58;601118;236;64814;-73
2022/07/20 10:07:49;;;;;;;;;;;;;;;22.35;79.09;97497.50;601125;236;64389;-72
2022/07/20 10:10:18;;;;;;;;;;;;;;;22.34;79.14;97498.58;601149;236;65025;-70
2022/07/20 10:12:45;;;;;;;;;;;;;;;22.35;78.99;97504.73;601133;236;64769;-72
2022/07/20 10:15:14;;;;;;;;;;;;;;;22.35;79.16;97496.70;600525;236;65155;-72
2022/07/20 10:17:44;;;;;;;;;;;;;;;22.35;79.14;97496.70;598643;236;64928;-71
2022/07/20 10:20:30;;;;;;;;;;;;;;;22.34;79.18;97487.88;597062;237;65947;-72
2022/07/20 10:23:18;;;;;;;;;;;;;;;22.35;79.24;97492.14;597173;237;64946;-73
2022/07/20 10:25:46;;;;;;;;;;;;;;;22.35;79.34;97483.31;597122;237;65168;-73
2022/07/20 10:28:27;;;;;;;;;;;;;;;22.35;79.35;97477.96;597122;237;67312;-73
2022/07/20 10:30:56;;;;;;;;;;;;;;;22.35;79.43;97472.60;597181;237;64749;-73
2022/07/20 10:33:26;;;;;;;;;;;;;;;22.35;79.40;97465.37;597068;237;62947;-73
2022/07/20 10:36:41;;;;;;;;;;;;;;;22.34;79.44;97474.48;597133;237;66839;-72
2022/07/20 10:38:24;;;;;;;;;;;;;;;22.35;79.57;97467.25;595892;237;67917;-65
2022/07/20 10:44:08;;;;;;;;;;;;;;;22.34;79.62;97461.09;597051;237;65201;-65
2022/07/20 10:46:36;;;;;;;;;;;;;;;22.35;79.71;97456.53;597180;237;66897;-65
2022/07/20 10:49:03;;;;;;;;;;;;;;;22.35;79.64;97460.02;597107;237;63121;-66
2022/07/20 10:51:31;;;;;;;;;;;;;;;22.34;79.60;97455.74;597169;237;64955;-65
2022/07/20 10:54:00;;;;;;;;;;;;;;;22.34;79.58;97455.74;597136;237;64506;-65
2022/07/20 10:56:30;;;;;;;;;;;;;;;22.35;79.64;97446.63;592880;238;65002;-65
2022/07/20 10:59:02;;;;;;;;;;;;;;;22.36;79.57;97447.42;601655;236;67202;-65
2022/07/20 11:01:29;;;;;;;;;;;;;;;22.36;79.63;97440.19;601589;236;67093;-65
2022/07/20 11:03:57;;;;;;;;;;;;;;;22.36;79.62;97442.06;601685;236;62812;-65
2022/07/20 11:06:24;;;;;;;;;;;;;;;22.37;79.54;97435.62;601594;236;64928;-65
2022/07/20 11:08:54;;;;;;;;;;;;;;;22.36;79.66;97429.48;596380;236;64814;-65
2022/07/20 11:11:23;;;;;;;;;;;;;;;22.36;79.56;97426.80;601580;236;65041;-65
2022/07/20 11:13:51;;;;;;;;;;;;;;;22.36;79.56;97426.80;601637;236;67072;-65
2022/07/20 11:16:20;;;;;;;;;;;;;;;22.38;79.49;97429.22;601551;236;66903;-65
2022/07/20 11:18:48;;;;;;;;;;;;;;;22.37;79.50;97427.59;601666;236;62783;-65
2022/07/20 11:21:15;;;;;;;;;;;;;;;22.37;79.42;97420.39;601653;236;65798;-65
2022/07/20 11:23:45;;;;;;;;;;;;;;;22.37;79.41;97422.23;601551;236;66636;-65
2022/07/20 11:26:14;;;;;;;;;;;;;;;22.37;79.37;97417.71;601644;236;64897;-65
2022/07/20 11:28:46;;;;;;;;;;;;;;;22.38;79.38;97413.95;601631;236;67263;-65
2022/07/20 11:31:13;;;;;;;;;;;;;;;22.38;79.41;97413.95;601483;236;67398;-66
2022/07/20 11:33:42;;;;;;;;;;;;;;;22.38;79.41;97413.95;601584;236;62910;-65
2022/07/20 11:36:14;;;;;;;;;;;;;;;22.38;79.38;97405.12;601573;236;67336;-64
2022/07/20 11:38:46;;;;;;;;;;;;;;;22.38;79.39;97407.80;601588;236;65035;-65
2022/07/20 11:41:15;;;;;;;;;;;;;;;22.39;79.35;97402.16;600135;233;62761;-65
2022/07/20 11:43:44;;;;;;;;;;;;;;;22.39;79.28;97402.16;598988;235;67287;-65
2022/07/20 11:46:13;;;;;;;;;;;;;;;22.39;79.27;97406.71;600302;235;64713;-65
2022/07/20 11:48:41;;;;;;;;;;;;;;;22.39;79.32;97401.36;602139;235;65100;-66
2022/07/20 11:51:09;;;;;;;;;;;;;;;22.39;79.18;97401.36;602065;235;66891;-65
2022/07/20 11:53:41;;;;;;;;;;;;;;;22.39;79.22;97396.80;601949;235;67118;-66
2022/07/20 11:56:10;;;;;;;;;;;;;;;22.39;79.18;97394.12;602050;235;65053;-67
2022/07/20 11:58:39;;;;;;;;;;;;;;;22.40;79.25;97392.27;601710;235;64683;-65
2022/07/20 12:01:07;;;;;;;;;;;;;;;22.42;75.41;97387.42;602101;235;66880;-65
2022/07/20 12:03:36;;;;;;;;;;;;;;;22.43;77.57;97389.05;602090;235;62677;-65
2022/07/20 12:06:05;;;;;;;;;;;;;;;22.41;78.02;97385.03;602047;235;67982;-65
2022/07/20 12:08:33;;;;;;;;;;;;;;;22.41;78.83;97379.67;602156;235;66857;-65
2022/07/20 12:11:01;;;;;;;;;;;;;;;22.39;79.16;97385.29;602092;235;62685;-65
2022/07/20 12:13:29;;;;;;;;;;;;;;;22.39;79.31;97383.41;602054;235;66872;-66
2022/07/20 12:15:58;;;;;;;;;;;;;;;22.38;79.33;97379.14;602074;235;66812;-65
2022/07/20 12:18:33;;;;;;;;;;;;;;;22.38;79.10;97376.45;602091;235;65024;-65
2022/07/20 12:21:01;;;;;;;;;;;;;;;22.39;79.05;97378.05;599094;235;66853;-64
2022/07/20 12:23:29;;;;;;;;;;;;;;;22.39;78.69;97374.58;602109;235;66816;-65
2022/07/20 12:25:57;;;;;;;;;;;;;;;22.41;78.71;97368.97;602135;235;64907;-65
2022/07/20 12:28:31;;;;;;;;;;;;;;;22.39;78.65;97364.66;602032;235;66879;-65
2022/07/20 12:31:06;;;;;;;;;;;;;;;22.39;78.62;97361.98;601837;232;66820;-65
2022/07/20 12:33:33;;;;;;;;;;;;;;;22.41;78.56;97366.28;597745;236;62869;-65
2022/07/20 12:36:07;;;;;;;;;;;;;;;22.39;78.43;97353.95;601504;236;66884;-74
2022/07/20 12:38:35;;;;;;;;;;;;;;;22.40;78.37;97360.14;597564;235;64785;-74
2022/07/20 12:41:13;;;;;;;;;;;;;;;22.41;78.37;97359.05;596400;237;65017;-74
2022/07/20 12:43:41;;;;;;;;;;;;;;;22.42;78.43;97351.81;596484;237;67305;-74
2022/07/20 12:46:10;;;;;;;;;;;;;;;22.41;78.49;97355.58;596647;238;65282;-74
2022/07/20 12:48:41;;;;;;;;;;;;;;;22.41;78.49;97353.69;596587;238;65099;-74
2022/07/20 12:51:10;;;;;;;;;;;;;;;22.42;77.96;97354.49;596602;238;64639;-74
2022/07/20 12:53:38;;;;;;;;;;;;;;;22.42;77.96;97351.81;596605;238;67061;-74
2022/07/20 12:56:06;;;;;;;;;;;;;;;22.43;78.55;97350.76;598348;236;65064;-76
2022/07/20 12:58:34;;;;;;;;;;;;;;;22.42;78.57;97339.22;600589;236;68085;-73